createdAt,value
2023-10-22T00:00:09.929Z,60060.19
2023-10-22T00:05:12.944Z,60009.75
2023-10-22T00:10:15.034Z,60100.13
2023-10-22T00:15:18.693Z,60045.47
2023-10-22T00:20:20.870Z,60032.88
2023-10-22T00:25:22.794Z,59999.22
2023-10-22T00:30:26.216Z,60007.66
2023-10-22T00:35:28.228Z,60045.47
2023-10-22T00:40:30.204Z,60028.66
2023-10-22T00:45:38.547Z,60066.50
2023-10-22T00:50:40.787Z,60013.94
2023-10-22T00:55:46.147Z,60041.28
2023-10-22T01:00:49.787Z,59986.63
2023-10-22T01:05:51.883Z,60011.84
2023-10-22T01:10:53.748Z,59995.03
2023-10-22T01:15:57.266Z,59990.81
2023-10-22T01:20:59.402Z,60018.16
2023-10-22T01:26:02.960Z,60011.84
2023-10-22T01:31:11.890Z,60020.25
2023-10-22T01:36:14.118Z,60066.50
2023-10-22T01:41:17.490Z,60022.34
2023-10-22T01:46:19.521Z,60018.16
2023-10-22T01:51:21.399Z,60016.06
2023-10-22T01:56:25.126Z,60028.66
2023-10-22T02:01:27.664Z,60003.44
2023-10-22T02:06:30.863Z,60047.59
2023-10-22T02:11:34.940Z,60001.34
2023-10-22T02:16:36.978Z,60011.84
2023-10-22T02:21:38.866Z,59967.69
2023-10-22T02:26:42.839Z,60024.47
2023-10-22T02:31:44.911Z,60011.84
2023-10-22T02:36:46.916Z,60020.25
2023-10-22T02:41:50.279Z,60003.44
2023-10-22T02:46:52.337Z,60049.69
2023-10-22T02:51:54.372Z,60028.66
2023-10-22T02:56:57.839Z,60028.66
2023-10-22T03:01:59.916Z,60020.25
2023-10-22T03:07:01.917Z,60020.25
2023-10-22T03:12:06.144Z,60037.06
2023-10-22T03:17:08.235Z,60016.06
2023-10-22T03:22:10.438Z,59999.22
2023-10-22T03:27:13.816Z,60005.53
2023-10-22T03:32:15.943Z,60051.78
2023-10-22T03:37:18.400Z,60039.19
2023-10-22T03:42:21.726Z,60070.72
2023-10-22T03:47:23.728Z,60041.28
2023-10-22T03:52:30.343Z,60005.53
2023-10-22T03:57:34.034Z,60018.16
2023-10-22T04:02:36.072Z,60034.97
2023-10-22T04:07:38.535Z,60024.47
2023-10-22T04:12:41.999Z,60051.78
2023-10-22T04:17:46.223Z,60020.25
2023-10-22T04:22:48.922Z,60007.66
2023-10-22T04:27:52.298Z,60013.94
2023-10-22T04:32:54.410Z,60041.28
2023-10-22T04:37:56.700Z,60011.84
2023-10-22T04:43:00.128Z,60024.47
2023-10-22T04:48:02.312Z,60034.97
2023-10-22T04:53:04.462Z,60034.97
2023-10-22T04:58:07.845Z,60024.47
2023-10-22T05:03:11.016Z,60049.69
2023-10-22T05:08:13.262Z,60047.59
2023-10-22T05:13:16.591Z,60045.47
2023-10-22T05:18:19.138Z,60066.50
2023-10-22T05:23:21.720Z,60049.69
2023-10-22T05:28:25.055Z,60037.06
2023-10-22T05:33:27.351Z,60041.28
2023-10-22T05:38:29.479Z,60060.19
2023-10-22T05:43:32.849Z,60028.66
2023-10-22T05:48:34.930Z,60062.31
2023-10-22T05:53:36.877Z,60049.69
2023-10-22T05:58:40.783Z,60039.19
2023-10-22T06:03:45.646Z,60062.31
2023-10-22T06:08:49.644Z,60060.19
2023-10-22T06:13:53.466Z,60026.56
2023-10-22T06:18:55.562Z,60032.88
2023-10-22T06:23:57.474Z,60034.97
2023-10-22T06:29:01.887Z,60041.28
2023-10-22T06:34:04.312Z,60072.81
2023-10-22T06:39:06.465Z,60049.69
2023-10-22T06:44:09.744Z,60053.91
2023-10-22T06:49:12.308Z,60020.25
2023-10-22T06:54:14.363Z,60039.19
2023-10-22T06:59:17.814Z,60032.88
2023-10-22T07:04:19.980Z,60039.19
2023-10-22T07:09:22.156Z,60053.91
2023-10-22T07:14:25.732Z,60045.47
2023-10-22T07:19:27.910Z,60066.50
2023-10-22T07:24:29.893Z,60018.16
2023-10-22T07:29:33.553Z,60034.97
2023-10-22T07:34:35.874Z,60089.63
2023-10-22T07:39:38.124Z,60028.66
2023-10-22T07:44:41.372Z,60016.06
2023-10-22T07:49:43.426Z,60043.38
2023-10-22T07:54:46.285Z,60051.78
2023-10-22T07:59:50.132Z,60037.06
2023-10-22T08:04:54.088Z,60066.50
2023-10-22T08:09:56.273Z,60058.09
2023-10-22T08:14:59.744Z,60016.06
2023-10-22T08:20:01.929Z,59980.31
2023-10-22T08:25:04.535Z,60028.66
2023-10-22T08:30:09.196Z,60047.59
2023-10-22T08:35:11.338Z,60056.00
2023-10-22T08:40:14.101Z,60039.19
2023-10-22T08:45:17.815Z,60049.69
2023-10-22T08:50:20.265Z,60049.69
2023-10-22T08:55:24.949Z,60030.78
2023-10-22T09:00:32.240Z,60056.00
2023-10-22T09:05:34.855Z,60058.09
2023-10-22T09:10:37.827Z,60053.91
2023-10-22T09:15:42.728Z,60079.13
2023-10-22T09:20:49.769Z,60030.78
2023-10-22T09:25:53.345Z,60043.38
2023-10-22T09:30:59.235Z,60041.28
2023-10-22T09:36:04.150Z,60016.06
2023-10-22T09:41:06.276Z,60020.25
2023-10-22T09:46:09.654Z,60013.94
2023-10-22T09:51:15.301Z,60022.34
2023-10-22T09:56:20.718Z,60066.50
2023-10-22T10:01:26.185Z,60051.78
2023-10-22T10:06:29.305Z,60022.34
2023-10-22T10:11:32.770Z,60068.59
2023-10-22T10:16:46.678Z,60058.09
2023-10-22T10:21:49.434Z,60037.06
2023-10-22T10:26:53.389Z,60045.47
2023-10-22T10:32:23.382Z,60056.00
2023-10-22T10:37:27.347Z,60056.00
2023-10-22T10:42:51.285Z,60045.47
2023-10-22T10:47:54.789Z,60074.91
2023-10-22T10:52:59.125Z,60062.31
2023-10-22T10:58:02.551Z,60051.78
2023-10-22T11:03:07.544Z,60030.78
2023-10-22T11:08:13.114Z,60081.22
2023-10-22T11:13:15.800Z,60066.50
2023-10-22T11:18:19.310Z,60085.44
2023-10-22T11:23:21.442Z,60070.72
2023-10-22T11:28:24.944Z,60072.81
2023-10-22T11:33:33.505Z,60104.34
2023-10-22T11:38:41.432Z,60112.75
2023-10-22T11:43:44.628Z,60108.56
2023-10-22T11:48:48.089Z,60089.63
2023-10-22T11:53:50.562Z,60062.31
2023-10-22T11:58:56.479Z,60053.91
2023-10-22T12:04:00.115Z,60102.25
2023-10-22T12:09:04.560Z,60037.06
2023-10-22T12:14:06.636Z,60110.66
2023-10-22T12:19:10.047Z,60070.72
2023-10-22T12:24:23.850Z,60091.72
2023-10-22T12:29:28.960Z,60106.44
2023-10-22T12:34:32.443Z,60091.72
2023-10-22T12:39:34.559Z,60083.31
2023-10-22T12:44:36.800Z,60074.91
2023-10-22T12:49:40.489Z,60066.50
2023-10-22T12:54:44.894Z,60091.72
2023-10-22T12:59:47.163Z,60070.72
2023-10-22T13:04:51.249Z,60070.72
2023-10-22T13:09:53.328Z,60095.94
2023-10-22T13:14:55.428Z,60095.94
2023-10-22T13:20:00.501Z,60062.31
2023-10-22T13:25:03.832Z,60062.31
2023-10-22T13:30:08.143Z,60060.19
2023-10-22T13:35:11.637Z,60083.31
2023-10-22T13:40:13.741Z,60110.66
2023-10-22T13:45:15.888Z,60098.03
2023-10-22T13:50:19.833Z,60116.97
2023-10-22T13:55:22.173Z,60093.84
2023-10-22T14:00:24.494Z,60068.59
2023-10-22T14:05:27.883Z,60112.75
2023-10-22T14:10:30.254Z,60123.25
2023-10-22T14:15:32.202Z,60114.84
2023-10-22T14:20:35.667Z,60119.06
2023-10-22T14:25:37.675Z,60056.00
2023-10-22T14:30:42.529Z,60116.97
2023-10-22T14:35:46.035Z,60079.13
2023-10-22T14:40:48.051Z,60077.00
2023-10-22T14:45:50.124Z,60095.94
2023-10-22T14:50:57.334Z,60079.13
2023-10-22T14:56:01.164Z,60102.25
2023-10-22T15:01:03.974Z,60108.56
2023-10-22T15:06:07.459Z,60087.53
2023-10-22T15:11:15.261Z,60091.72
2023-10-22T15:16:17.956Z,60108.56
2023-10-22T15:21:22.992Z,60106.44
2023-10-22T15:26:25.100Z,60114.84
2023-10-22T15:31:28.449Z,60089.63
2023-10-22T15:36:31.918Z,60108.56
2023-10-22T15:41:33.999Z,60085.44
2023-10-22T15:46:36.131Z,60056.00
2023-10-22T15:51:39.685Z,60116.97
2023-10-22T15:56:41.749Z,60152.69
2023-10-22T16:01:43.843Z,60095.94
2023-10-22T16:06:47.299Z,60142.19
2023-10-22T16:11:49.560Z,60104.34
2023-10-22T16:16:51.688Z,60106.44
2023-10-22T16:21:55.104Z,60104.34
2023-10-22T16:26:57.172Z,60074.91
2023-10-22T16:31:59.290Z,60123.25
2023-10-22T16:37:02.763Z,60104.34
2023-10-22T16:42:05.365Z,60154.81
2023-10-22T16:47:07.496Z,60095.94
2023-10-22T16:52:10.987Z,60144.28
2023-10-22T16:57:13.611Z,60114.84
2023-10-22T17:02:15.869Z,60081.22
2023-10-22T17:07:19.290Z,60116.97
2023-10-22T17:12:21.382Z,60104.34
2023-10-22T17:17:23.454Z,60085.44
2023-10-22T17:22:26.948Z,60106.44
2023-10-22T17:27:29.064Z,60121.16
2023-10-22T17:32:33.593Z,60133.78
2023-10-22T17:37:37.130Z,60087.53
2023-10-22T17:42:39.337Z,60129.56
2023-10-22T17:47:41.556Z,60137.97
2023-10-22T17:52:45.029Z,60087.53
2023-10-22T17:57:47.028Z,60119.06
2023-10-22T18:02:51.176Z,60100.13
2023-10-22T18:07:54.614Z,60077.00
2023-10-22T18:12:56.670Z,60127.47
2023-10-22T18:17:58.735Z,60100.13
2023-10-22T18:23:03.971Z,60095.94
2023-10-22T18:28:06.346Z,60087.53
2023-10-22T18:33:08.453Z,60108.56
2023-10-22T18:38:11.916Z,60137.97
2023-10-22T18:43:15.184Z,60106.44
2023-10-22T18:48:17.271Z,60154.81
2023-10-22T18:53:20.848Z,60104.34
2023-10-22T18:58:22.957Z,60083.31
2023-10-22T19:03:25.106Z,60129.56
2023-10-22T19:08:28.705Z,60098.03
2023-10-22T19:13:30.746Z,60093.84
2023-10-22T19:18:32.846Z,60091.72
2023-10-22T19:23:36.601Z,60112.75
2023-10-22T19:28:38.696Z,60114.84
2023-10-22T19:33:41.899Z,60072.81
2023-10-22T19:38:46.233Z,60137.97
2023-10-22T19:43:48.528Z,60116.97
2023-10-22T19:48:50.625Z,60085.44
2023-10-22T19:53:55.189Z,60129.56
2023-10-22T19:58:57.373Z,60114.84
2023-10-22T20:04:00.733Z,60108.56
2023-10-22T20:09:04.342Z,60110.66
2023-10-22T20:14:06.471Z,60114.84
2023-10-22T20:19:09.557Z,60137.97
2023-10-22T20:24:13.253Z,60116.97
2023-10-22T20:29:17.286Z,60119.06
2023-10-22T20:34:19.412Z,60095.94
2023-10-22T20:39:22.851Z,60104.34
2023-10-22T20:44:24.929Z,60123.25
2023-10-22T20:49:27.083Z,60087.53
2023-10-22T20:54:30.527Z,60129.56
2023-10-22T20:59:32.642Z,60112.75
2023-10-22T21:04:36.592Z,60079.13
2023-10-22T21:09:40.139Z,60129.56
2023-10-22T21:14:42.235Z,60114.84
2023-10-22T21:19:44.254Z,60127.47
2023-10-22T21:24:47.700Z,60121.16
2023-10-22T21:29:50.027Z,60146.38
2023-10-22T21:34:52.720Z,60119.06
2023-10-22T21:40:00.848Z,60060.19
2023-10-22T21:45:03.352Z,60112.75
2023-10-22T21:50:07.536Z,60079.13
2023-10-22T21:55:11.121Z,60098.03
2023-10-22T22:00:15.764Z,60104.34
2023-10-22T22:05:18.113Z,60123.25
2023-10-22T22:10:21.751Z,60137.97
2023-10-22T22:15:23.866Z,60106.44
2023-10-22T22:20:26.443Z,60112.75
2023-10-22T22:25:41.775Z,60127.47
2023-10-22T22:30:47.420Z,60152.69
2023-10-22T22:35:49.448Z,60112.75
2023-10-22T22:40:52.800Z,60098.03
2023-10-22T22:45:54.943Z,60129.56
2023-10-22T22:50:57.253Z,60100.13
2023-10-22T22:56:00.600Z,60129.56
2023-10-22T23:01:03.195Z,60154.81
2023-10-22T23:06:05.142Z,60112.75
2023-10-22T23:11:08.507Z,60104.34
2023-10-22T23:16:10.704Z,60108.56
2023-10-22T23:21:12.844Z,60131.69
2023-10-22T23:26:16.232Z,60110.66
2023-10-22T23:31:18.418Z,60127.47
2023-10-22T23:36:20.473Z,60137.97
2023-10-22T23:41:23.824Z,60102.25
2023-10-22T23:46:25.839Z,60135.88
2023-10-22T23:51:27.958Z,60129.56
2023-10-22T23:56:31.344Z,60116.97
